Rechercher aéroport 
image banner adimage banner adimage banner ad
image banner ad

5CL8 - Creekside

Situé à Arvin, United States

ICAO - 5CL8, IATA -

Données fournies par Airmate  

Information générale

Coordonnées: N35°10'34" W118°55'23"
Élévation : 335 feet MSL.
Variation magnétique : 14° East
Voir autres Aéroports à California

Données opérationnelles

Special qualification required
Heure actuelle UTC:
Heure actuelle locale:
Météo à : KBFL - Meadows Field ( 31 km )
METAR: KBFL 251654Z 30007KT 8SM CLR 31/02 A2991 RMK AO2 SLP120 T03110022
TAF: KBFL 251120Z 2512/2612 VRB06KT P6SM FEW250 FM260300 VRB05KT P6SM FEW250 FM260500 33007KT P6SM FEW250
Voir NOTAMs / SUP AIP / TFR affectant cet aéroport [VIEW]
Fréquences de communication: [VIEW]

Pistes:

Identifiant RWYQFULongueur (ft)Largeur (ft)SurfaceLDA (ft)
162000100OTHER
342000100OTHER

Coordonnées de l'aéroport

Adresse: Arvin United States

Vue satellite de 5CL8